Poppa P — WDH3587 — position and weather

sailwx.info

Track history (hours):
 
Tides and Currents Weather Stations Pressure Air Temp Water Temp Dewpoint Dewpoint Depression Visibility Wind Speed Wind Dir Waves Ship Positions

Poppa P

Owner: J & B Boat Rental LLC, Bourg, LA. More information available from US FCC via Universal Licensing System and Coast Guard Vessel Documentation Center.

Last reported at 2018-May-18 07:16 UTC. Time now 2018-Jul-16 22:10 UTC.
Position N 29°16' W 089°58'.
Warning: this ship's position is 59 days out of date.

Length 43 m; draft 2.5 m.

Type: Passenger vessel. MMSI: 367608850.

Date/timePositionNaut miles runAvg speedWind from/ knotsBaromVisibWave heightAir tempDewpointWater temp
2018-May-18 07:16N 29°16' W 089°58'0 0.0
2018-May-18 06:58N 29°16' W 089°58'  
2018-May-14 06:38N 28°57' W 090°43'0 0.0
2018-May-14 06:30N 28°57' W 090°43'  
2018-May-08 13:33N 28°58' W 090°40'4 7.3
2018-May-08 13:02N 28°59' W 090°44'0 0.4
2018-May-08 13:00N 28°59' W 090°44'2 3.2
2018-May-08 12:28N 28°58' W 090°46'3 1.6
2018-May-08 10:45N 28°56' W 090°43'0 0.0
2018-May-08 10:19N 28°56' W 090°43'  
Track history (hours):
 
Tides and Currents Weather Stations Pressure Air Temp Water Temp Dewpoint Dewpoint Depression Visibility Wind Speed Wind Dir Waves Ship Positions

Poppa P

Owner: J & B Boat Rental LLC, Bourg, LA. More information available from US FCC via Universal Licensing System and Coast Guard Vessel Documentation Center.

Last reported at 2018-May-18 07:16 UTC. Time now 2018-Jul-16 22:10 UTC.
Position N 29°16' W 089°58'.
Warning: this ship's position is 59 days out of date.

Length 43 m; draft 2.5 m.

Type: Passenger vessel. MMSI: 367608850.

Date/timePositionNaut miles runAvg speedWind from/ knotsBaromVisibWave heightAir tempDewpointWater temp
2018-May-18 07:16N 29°16' W 089°58'0 0.0
2018-May-18 06:58N 29°16' W 089°58'  
2018-May-14 06:38N 28°57' W 090°43'0 0.0
2018-May-14 06:30N 28°57' W 090°43'  
2018-May-08 13:33N 28°58' W 090°40'4 7.3
2018-May-08 13:02N 28°59' W 090°44'0 0.4
2018-May-08 13:00N 28°59' W 090°44'2 3.2
2018-May-08 12:28N 28°58' W 090°46'3 1.6
2018-May-08 10:45N 28°56' W 090°43'0 0.0
2018-May-08 10:19N 28°56' W 090°43'  

Dump ship's entire track history